createdAt,value
2022-12-06T00:01:20.199Z,2.20
2022-12-06T00:03:51.234Z,2.20
2022-12-06T00:06:20.312Z,2.20
2022-12-06T00:08:47.694Z,2.20
2022-12-06T00:11:26.495Z,2.20
2022-12-06T00:13:58.681Z,2.20
2022-12-06T00:16:26.341Z,2.20
2022-12-06T00:18:53.812Z,2.20
2022-12-06T00:21:28.193Z,2.20
2022-12-06T00:24:03.710Z,2.20
2022-12-06T00:26:31.557Z,2.20
2022-12-06T00:29:00.217Z,2.20
2022-12-06T00:31:29.080Z,2.20
2022-12-06T00:33:56.271Z,2.10
2022-12-06T00:36:25.540Z,2.10
2022-12-06T00:38:52.567Z,2.10
2022-12-06T00:41:21.390Z,2.10
2022-12-06T00:43:48.651Z,2.10
2022-12-06T00:46:18.549Z,2.10
2022-12-06T00:48:46.622Z,2.10
2022-12-06T00:51:14.891Z,2.10
2022-12-06T00:53:42.441Z,2.10
2022-12-06T00:56:09.291Z,2.10
2022-12-06T00:58:35.984Z,2.10
2022-12-06T01:01:11.197Z,2.10
2022-12-06T01:03:38.921Z,2.10
2022-12-06T01:06:08.038Z,2.10
2022-12-06T01:08:36.013Z,2.10
2022-12-06T01:11:03.644Z,2.10
2022-12-06T01:13:30.268Z,2.10
2022-12-06T01:15:57.516Z,2.10
2022-12-06T01:18:24.239Z,2.10
2022-12-06T01:20:50.858Z,2.10
2022-12-06T01:23:17.489Z,2.10
2022-12-06T01:25:53.494Z,2.10
2022-12-06T01:28:20.185Z,2.10
2022-12-06T01:30:46.897Z,2.10
2022-12-06T01:33:13.550Z,2.10
2022-12-06T01:35:41.678Z,2.10
2022-12-06T01:38:09.954Z,2.10
2022-12-06T01:40:42.044Z,2.10
2022-12-06T01:43:28.843Z,2.10
2022-12-06T01:45:56.364Z,2.10
2022-12-06T01:48:26.384Z,2.10
2022-12-06T01:50:56.227Z,2.10
2022-12-06T01:53:25.868Z,2.10
2022-12-06T01:55:53.401Z,2.10
2022-12-06T01:58:25.292Z,2.10
2022-12-06T02:00:52.198Z,2.10
2022-12-06T02:03:25.773Z,2.10
2022-12-06T02:05:52.531Z,2.10
2022-12-06T02:08:21.389Z,2.10
2022-12-06T02:10:48.252Z,2.10
2022-12-06T02:13:15.098Z,2.10
2022-12-06T02:15:51.046Z,2.10
2022-12-06T02:18:41.213Z,2.10
2022-12-06T02:21:13.901Z,2.00
2022-12-06T02:23:55.779Z,2.10
2022-12-06T02:26:28.977Z,2.10
2022-12-06T02:29:30.762Z,2.10
2022-12-06T02:32:36.094Z,2.10
2022-12-06T02:35:17.305Z,2.10
2022-12-06T02:37:56.723Z,2.10
2022-12-06T02:40:30.973Z,2.10
2022-12-06T02:43:11.140Z,2.00
2022-12-06T02:45:46.850Z,2.00
2022-12-06T02:48:15.818Z,2.00
2022-12-06T02:50:59.661Z,2.00
2022-12-06T02:53:28.905Z,2.00
2022-12-06T02:55:56.536Z,2.00
2022-12-06T02:58:23.454Z,2.00
2022-12-06T03:01:03.468Z,2.00
2022-12-06T03:03:52.504Z,2.00
2022-12-06T03:06:57.233Z,2.00
2022-12-06T03:09:49.640Z,2.00
2022-12-06T03:12:16.190Z,2.00
2022-12-06T03:15:09.042Z,2.00
2022-12-06T03:17:51.507Z,2.00
2022-12-06T03:20:28.809Z,2.00
2022-12-06T03:23:02.879Z,2.00
2022-12-06T03:25:30.069Z,2.00
2022-12-06T03:27:59.083Z,2.00
2022-12-06T03:30:25.884Z,2.00
2022-12-06T03:32:52.746Z,2.00
2022-12-06T03:35:25.781Z,2.00
2022-12-06T03:37:57.456Z,2.00
2022-12-06T03:40:31.474Z,2.00
2022-12-06T03:42:58.621Z,2.00
2022-12-06T03:45:49.296Z,2.00
2022-12-06T03:48:26.322Z,2.00
2022-12-06T03:51:02.275Z,2.00
2022-12-06T03:53:29.026Z,2.00
2022-12-06T03:55:55.666Z,2.00
2022-12-06T03:58:22.339Z,2.00
2022-12-06T04:00:48.950Z,2.00
2022-12-06T04:03:15.760Z,2.00
2022-12-06T04:05:42.562Z,2.00
2022-12-06T04:08:09.323Z,2.00
2022-12-06T04:10:35.989Z,2.00
2022-12-06T04:13:02.989Z,2.00
2022-12-06T04:15:36.004Z,2.00
2022-12-06T04:18:14.158Z,2.00
2022-12-06T04:21:05.225Z,2.00
2022-12-06T04:23:35.992Z,2.00
2022-12-06T04:26:04.494Z,2.00
2022-12-06T04:28:49.805Z,2.00
2022-12-06T04:31:35.455Z,2.00
2022-12-06T04:34:20.909Z,2.00
2022-12-06T04:37:06.210Z,2.00
2022-12-06T04:39:33.495Z,2.00
2022-12-06T04:42:19.168Z,2.00
2022-12-06T04:44:45.927Z,2.00
2022-12-06T04:47:12.601Z,2.00
2022-12-06T04:49:39.382Z,2.00
2022-12-06T04:52:07.979Z,2.00
2022-12-06T04:54:34.915Z,2.00
2022-12-06T04:57:02.945Z,2.00
2022-12-06T04:59:30.173Z,2.00
2022-12-06T05:01:57.185Z,2.00
2022-12-06T05:04:24.243Z,2.00
2022-12-06T05:06:50.960Z,2.00
2022-12-06T05:09:17.594Z,2.00
2022-12-06T05:11:44.222Z,2.00
2022-12-06T05:14:11.005Z,2.00
2022-12-06T05:16:37.753Z,2.00
2022-12-06T05:19:04.689Z,2.00
2022-12-06T05:21:31.667Z,2.00
2022-12-06T05:23:58.530Z,2.00
2022-12-06T05:26:28.057Z,2.00
2022-12-06T05:28:55.520Z,2.00
2022-12-06T05:31:23.180Z,2.00
2022-12-06T05:33:50.166Z,2.00
2022-12-06T05:36:23.564Z,2.00
2022-12-06T05:38:51.728Z,2.00
2022-12-06T05:41:20.278Z,2.10
2022-12-06T05:43:47.169Z,2.00
2022-12-06T05:46:14.240Z,2.10
2022-12-06T05:48:40.937Z,2.10
2022-12-06T05:51:07.596Z,2.00
2022-12-06T05:53:34.280Z,2.00
2022-12-06T05:56:09.836Z,2.00
2022-12-06T05:58:37.152Z,2.00
2022-12-06T06:01:05.285Z,2.10
2022-12-06T06:03:31.992Z,2.10
2022-12-06T06:06:00.219Z,2.10
2022-12-06T06:08:28.698Z,2.10
2022-12-06T06:10:55.973Z,2.10
2022-12-06T06:13:22.996Z,2.10
2022-12-06T06:15:50.518Z,2.10
2022-12-06T06:18:18.243Z,2.10
2022-12-06T06:20:52.360Z,2.10
2022-12-06T06:23:19.867Z,2.10
2022-12-06T06:25:46.868Z,2.10
2022-12-06T06:28:14.138Z,2.00
2022-12-06T06:30:40.807Z,2.00
2022-12-06T06:33:07.471Z,2.10
2022-12-06T06:35:34.221Z,2.10
2022-12-06T06:38:00.992Z,2.20
2022-12-06T06:40:28.660Z,2.20
2022-12-06T06:42:56.364Z,2.30
2022-12-06T06:45:28.765Z,2.30
2022-12-06T06:47:55.708Z,2.30
2022-12-06T06:50:22.347Z,2.40
2022-12-06T06:52:49.209Z,2.40
2022-12-06T06:55:15.953Z,2.40
2022-12-06T06:57:42.570Z,2.40
2022-12-06T07:00:09.749Z,2.40
2022-12-06T07:02:39.404Z,2.40
2022-12-06T07:05:06.640Z,2.40
2022-12-06T07:07:33.341Z,2.40
2022-12-06T07:10:00.865Z,2.30
2022-12-06T07:12:27.894Z,2.30
2022-12-06T07:14:54.605Z,2.30
2022-12-06T07:17:21.631Z,2.30
2022-12-06T07:19:48.288Z,2.30
2022-12-06T07:22:14.983Z,2.30
2022-12-06T07:24:45.485Z,2.30
2022-12-06T07:27:14.680Z,2.30
2022-12-06T07:29:41.345Z,2.30
2022-12-06T07:32:08.058Z,2.30
2022-12-06T07:34:34.718Z,2.30
2022-12-06T07:37:03.412Z,2.30
2022-12-06T07:39:30.082Z,2.30
2022-12-06T07:42:15.403Z,2.30
2022-12-06T07:45:02.254Z,2.30
2022-12-06T07:47:37.406Z,2.30
2022-12-06T07:50:05.742Z,2.30
2022-12-06T07:52:33.999Z,2.30
2022-12-06T07:55:00.992Z,2.30
2022-12-06T07:57:27.953Z,2.40
2022-12-06T07:59:55.523Z,2.40
2022-12-06T08:02:25.723Z,2.40
2022-12-06T08:04:53.362Z,2.40
2022-12-06T08:07:21.142Z,2.40
2022-12-06T08:09:48.244Z,2.40
2022-12-06T08:12:15.181Z,2.40
2022-12-06T08:14:41.927Z,2.40
2022-12-06T08:17:08.552Z,2.40
2022-12-06T08:19:35.256Z,2.40
2022-12-06T08:22:03.045Z,2.40
2022-12-06T08:24:29.932Z,2.40
2022-12-06T08:26:56.949Z,2.40
2022-12-06T08:29:23.602Z,2.40
2022-12-06T08:31:50.455Z,2.40
2022-12-06T08:34:17.926Z,2.40
2022-12-06T08:36:44.686Z,2.40
2022-12-06T08:39:12.724Z,2.40
2022-12-06T08:41:55.360Z,2.50
2022-12-06T08:44:22.662Z,2.50
2022-12-06T08:46:49.693Z,2.50
2022-12-06T08:49:17.712Z,2.50
2022-12-06T08:51:44.672Z,2.50
2022-12-06T08:54:14.731Z,2.50
2022-12-06T08:56:41.450Z,2.60
2022-12-06T08:59:08.742Z,2.60
2022-12-06T09:01:38.043Z,2.60
2022-12-06T09:04:07.191Z,2.60
2022-12-06T09:06:34.259Z,2.60
2022-12-06T09:09:01.120Z,2.60
2022-12-06T09:11:27.869Z,2.70
2022-12-06T09:13:54.741Z,2.70
2022-12-06T09:16:23.271Z,2.70
2022-12-06T09:18:51.686Z,2.70
2022-12-06T09:21:30.355Z,2.70
2022-12-06T09:23:58.209Z,2.80
2022-12-06T09:26:26.118Z,2.80
2022-12-06T09:28:54.412Z,2.90
2022-12-06T09:31:21.678Z,2.90
2022-12-06T09:33:48.726Z,2.90
2022-12-06T09:36:26.378Z,3.00
2022-12-06T09:39:17.470Z,2.90
2022-12-06T09:42:26.252Z,3.00
2022-12-06T09:45:04.315Z,3.00
2022-12-06T09:47:36.841Z,3.00
2022-12-06T09:50:37.867Z,3.10
2022-12-06T09:53:30.366Z,3.10
2022-12-06T09:56:00.106Z,3.10
2022-12-06T09:58:39.204Z,3.10
2022-12-06T10:01:19.133Z,3.10
2022-12-06T10:04:02.940Z,3.10
2022-12-06T10:06:40.472Z,3.10
2022-12-06T10:09:32.768Z,3.20
2022-12-06T10:12:14.669Z,3.20
2022-12-06T10:15:38.456Z,3.20
2022-12-06T10:18:17.240Z,3.20
2022-12-06T10:21:03.544Z,3.20
2022-12-06T10:23:50.055Z,3.20
2022-12-06T10:26:26.096Z,3.20
2022-12-06T10:29:37.702Z,3.20
2022-12-06T10:32:18.884Z,3.20
2022-12-06T10:34:55.798Z,3.20
2022-12-06T10:37:55.352Z,3.20
2022-12-06T10:40:51.014Z,3.20
2022-12-06T10:43:26.005Z,3.20
2022-12-06T10:46:49.088Z,3.30
2022-12-06T10:49:28.651Z,3.30
2022-12-06T10:52:16.361Z,3.30
2022-12-06T10:55:09.179Z,3.30
2022-12-06T10:58:00.074Z,3.30
2022-12-06T11:00:29.057Z,3.40
2022-12-06T11:03:17.615Z,3.40
2022-12-06T11:05:46.452Z,3.40
2022-12-06T11:08:21.534Z,3.40
2022-12-06T11:10:48.569Z,3.40
2022-12-06T11:13:53.426Z,3.50
2022-12-06T11:16:43.351Z,3.50
2022-12-06T11:19:29.754Z,3.50
2022-12-06T11:22:12.838Z,3.60
2022-12-06T11:24:50.711Z,3.60
2022-12-06T11:27:26.529Z,3.60
2022-12-06T11:29:53.306Z,3.70
2022-12-06T11:32:20.168Z,3.70
2022-12-06T11:34:50.801Z,3.70
2022-12-06T11:37:21.112Z,3.70
2022-12-06T11:39:54.451Z,3.80
2022-12-06T11:42:27.753Z,3.80
2022-12-06T11:45:00.481Z,3.80
2022-12-06T11:47:27.333Z,3.80
2022-12-06T11:49:56.272Z,3.80
2022-12-06T11:52:41.644Z,3.90
2022-12-06T11:55:18.642Z,3.90
2022-12-06T11:58:07.298Z,3.90
2022-12-06T12:00:34.026Z,3.90
2022-12-06T12:03:00.708Z,3.90
2022-12-06T12:05:38.523Z,3.90
2022-12-06T12:08:15.262Z,3.90
2022-12-06T12:10:45.019Z,4.00
2022-12-06T12:13:33.458Z,4.00
2022-12-06T12:16:13.336Z,4.00
2022-12-06T12:18:48.696Z,4.00
2022-12-06T12:21:15.448Z,4.00
2022-12-06T12:23:47.501Z,4.00
2022-12-06T12:26:15.808Z,4.00
2022-12-06T12:28:44.494Z,4.00
2022-12-06T12:31:21.100Z,4.00
2022-12-06T12:33:48.278Z,4.10
2022-12-06T12:36:28.036Z,4.10
2022-12-06T12:39:03.986Z,4.10
2022-12-06T12:41:37.937Z,4.10
2022-12-06T12:47:18.819Z,4.10
2022-12-06T12:50:03.399Z,4.10
2022-12-06T12:52:39.237Z,4.10
2022-12-06T12:55:29.477Z,4.10
2022-12-06T12:58:00.037Z,4.10
2022-12-06T13:00:41.364Z,4.10
2022-12-06T13:03:50.070Z,4.10
2022-12-06T13:06:29.896Z,4.10
2022-12-06T13:09:00.690Z,4.10
2022-12-06T13:11:29.011Z,4.10
2022-12-06T13:13:56.828Z,4.10
2022-12-06T13:16:29.151Z,4.10
2022-12-06T13:18:58.355Z,4.10
2022-12-06T13:21:35.689Z,4.10
2022-12-06T13:24:27.191Z,4.10
2022-12-06T13:27:03.895Z,4.10
2022-12-06T13:29:46.771Z,4.00
2022-12-06T13:32:20.232Z,4.00
2022-12-06T13:34:57.637Z,4.00
2022-12-06T13:37:27.246Z,4.10
2022-12-06T13:39:54.089Z,4.10
2022-12-06T13:42:43.624Z,4.00
2022-12-06T13:45:38.955Z,4.10
2022-12-06T13:48:25.597Z,4.10
2022-12-06T13:50:58.145Z,4.00
2022-12-06T13:53:27.471Z,4.00
2022-12-06T13:56:00.684Z,4.10
2022-12-06T13:58:27.258Z,4.00
2022-12-06T14:00:55.371Z,4.00
2022-12-06T14:03:23.451Z,4.00
2022-12-06T14:06:08.953Z,4.00
2022-12-06T14:08:44.627Z,4.00
2022-12-06T14:11:25.052Z,4.10
2022-12-06T14:14:00.399Z,4.00
2022-12-06T14:16:40.367Z,4.00
2022-12-06T14:19:31.133Z,4.00
2022-12-06T14:21:59.099Z,4.00
2022-12-06T14:24:41.884Z,4.00
2022-12-06T14:27:17.725Z,4.00
2022-12-06T14:29:58.951Z,4.00
2022-12-06T14:32:53.220Z,4.00
2022-12-06T14:35:22.664Z,4.00
2022-12-06T14:37:57.914Z,4.00
2022-12-06T14:43:19.014Z,4.00
2022-12-06T14:45:46.162Z,3.90
2022-12-06T14:48:13.513Z,4.00
2022-12-06T14:51:01.438Z,3.90
2022-12-06T14:53:30.053Z,3.90
2022-12-06T14:55:56.670Z,4.00
2022-12-06T14:58:40.388Z,4.00
2022-12-06T15:01:17.984Z,4.00
2022-12-06T15:03:56.163Z,4.00
2022-12-06T15:06:24.743Z,4.00
2022-12-06T15:09:10.980Z,4.00
2022-12-06T15:11:58.383Z,4.00
2022-12-06T15:14:45.413Z,4.00
2022-12-06T15:17:12.014Z,4.00
2022-12-06T15:19:47.778Z,4.00
2022-12-06T15:22:21.353Z,4.00
2022-12-06T15:24:55.301Z,3.90
2022-12-06T15:27:23.319Z,3.90
2022-12-06T15:29:50.421Z,4.00
2022-12-06T15:32:19.083Z,3.90
2022-12-06T15:34:46.418Z,3.90
2022-12-06T15:37:38.127Z,3.90
2022-12-06T15:40:03.245Z,3.90
2022-12-06T15:42:30.135Z,3.90
2022-12-06T15:44:56.755Z,3.90
2022-12-06T15:47:23.418Z,3.90
2022-12-06T15:49:52.364Z,3.90
2022-12-06T15:52:23.407Z,3.90
2022-12-06T15:54:50.429Z,3.90
2022-12-06T15:57:17.100Z,3.80
2022-12-06T15:59:43.779Z,3.80
2022-12-06T16:02:19.663Z,3.80
2022-12-06T16:04:50.368Z,3.80
2022-12-06T16:07:18.912Z,3.80
2022-12-06T16:09:47.850Z,3.80
2022-12-06T16:12:14.492Z,3.80
2022-12-06T16:14:41.157Z,3.80
2022-12-06T16:17:08.439Z,3.80
2022-12-06T16:19:53.662Z,3.80
2022-12-06T16:22:40.334Z,3.80
2022-12-06T16:25:07.293Z,3.80
2022-12-06T16:27:33.883Z,3.80
2022-12-06T16:30:00.500Z,3.80
2022-12-06T16:32:27.316Z,3.70
2022-12-06T16:34:53.987Z,3.70
2022-12-06T16:37:20.814Z,3.70
2022-12-06T16:39:47.555Z,3.70
2022-12-06T16:42:14.284Z,3.70
2022-12-06T16:44:51.010Z,3.70
2022-12-06T16:47:18.323Z,3.70
2022-12-06T16:49:46.917Z,3.60
2022-12-06T16:52:14.922Z,3.60
2022-12-06T16:54:42.275Z,3.60
2022-12-06T16:57:13.640Z,3.60
2022-12-06T16:59:41.888Z,3.60
2022-12-06T17:02:35.025Z,3.50
2022-12-06T17:05:06.187Z,3.50
2022-12-06T17:07:36.852Z,3.50
2022-12-06T17:10:04.191Z,3.50
2022-12-06T17:12:30.865Z,3.40
2022-12-06T17:14:59.769Z,3.40
2022-12-06T17:17:29.177Z,3.40
2022-12-06T17:19:56.918Z,3.40
2022-12-06T17:22:24.082Z,3.40
2022-12-06T17:24:51.003Z,3.40
2022-12-06T17:27:17.935Z,3.40
2022-12-06T17:29:45.308Z,3.40
2022-12-06T17:32:13.187Z,3.40
2022-12-06T17:34:39.860Z,3.40
2022-12-06T17:37:07.840Z,3.30
2022-12-06T17:39:34.970Z,3.30
2022-12-06T17:42:20.388Z,3.30
2022-12-06T17:44:47.277Z,3.30
2022-12-06T17:47:13.952Z,3.30
2022-12-06T17:49:40.625Z,3.20
2022-12-06T17:52:07.349Z,3.20
2022-12-06T17:54:34.089Z,3.20
2022-12-06T17:57:00.711Z,3.20
2022-12-06T17:59:30.251Z,3.20
2022-12-06T18:02:19.248Z,3.20
2022-12-06T18:04:47.394Z,3.20
2022-12-06T18:07:14.937Z,3.20
2022-12-06T18:09:41.600Z,3.10
2022-12-06T18:12:09.834Z,3.10
2022-12-06T18:14:36.532Z,3.10
2022-12-06T18:17:03.876Z,3.10
2022-12-06T18:19:31.313Z,3.10
2022-12-06T18:21:57.976Z,3.10
2022-12-06T18:24:29.180Z,3.10
2022-12-06T18:26:58.562Z,3.10
2022-12-06T18:29:25.262Z,3.10
2022-12-06T18:31:52.417Z,3.10
2022-12-06T18:34:19.775Z,3.10
2022-12-06T18:36:47.194Z,3.10
2022-12-06T18:39:16.417Z,3.10
2022-12-06T18:41:46.291Z,3.10
2022-12-06T18:44:13.750Z,3.10
2022-12-06T18:46:42.242Z,3.10
2022-12-06T18:49:11.142Z,3.10
2022-12-06T18:51:38.674Z,3.10
2022-12-06T18:54:06.662Z,3.10
2022-12-06T18:56:34.582Z,3.10
2022-12-06T18:59:03.947Z,3.10
2022-12-06T19:01:33.332Z,3.10
2022-12-06T19:04:03.040Z,3.10
2022-12-06T19:06:35.340Z,3.10
2022-12-06T19:09:06.448Z,3.10
2022-12-06T19:11:36.483Z,3.10
2022-12-06T19:14:03.570Z,3.10
2022-12-06T19:16:46.433Z,3.10
2022-12-06T19:19:19.247Z,3.10
2022-12-06T19:21:47.433Z,3.10
2022-12-06T19:24:17.646Z,3.10
2022-12-06T19:26:44.772Z,3.20
2022-12-06T19:29:11.985Z,3.20
2022-12-06T19:31:38.625Z,3.10
2022-12-06T19:34:05.475Z,3.10
2022-12-06T19:36:32.569Z,3.10
2022-12-06T19:39:03.834Z,3.10
2022-12-06T19:41:31.202Z,3.10
2022-12-06T19:44:16.947Z,3.10
2022-12-06T19:46:45.317Z,3.10
2022-12-06T19:49:14.288Z,3.10
2022-12-06T19:51:43.459Z,3.10
2022-12-06T19:54:11.647Z,3.10
2022-12-06T19:56:41.615Z,3.10
2022-12-06T19:59:14.119Z,3.10
2022-12-06T20:01:43.403Z,3.20
2022-12-06T20:04:15.764Z,3.10
2022-12-06T20:06:42.414Z,3.10
2022-12-06T20:09:09.096Z,3.10
2022-12-06T20:11:56.065Z,3.10
2022-12-06T20:14:23.005Z,3.10
2022-12-06T20:16:50.910Z,3.20
2022-12-06T20:19:18.259Z,3.20
2022-12-06T20:21:45.672Z,3.20
2022-12-06T20:24:14.985Z,3.20
2022-12-06T20:26:41.706Z,3.20
2022-12-06T20:29:08.621Z,3.20
2022-12-06T20:31:35.741Z,3.20
2022-12-06T20:34:07.865Z,3.20
2022-12-06T20:36:36.922Z,3.20
2022-12-06T20:39:04.113Z,3.20
2022-12-06T20:41:33.031Z,3.20
2022-12-06T20:44:02.976Z,3.20
2022-12-06T20:46:31.530Z,3.20
2022-12-06T20:49:03.841Z,3.20
2022-12-06T20:51:31.078Z,3.20
2022-12-06T20:54:00.111Z,3.30
2022-12-06T20:56:29.918Z,3.30
2022-12-06T20:58:58.958Z,3.30
2022-12-06T21:01:29.127Z,3.30
2022-12-06T21:03:56.256Z,3.30
2022-12-06T21:06:24.503Z,3.30
2022-12-06T21:08:51.756Z,3.30
2022-12-06T21:11:23.801Z,3.30
2022-12-06T21:13:56.156Z,3.30
2022-12-06T21:16:24.088Z,3.30
2022-12-06T21:19:04.675Z,3.40
2022-12-06T21:21:37.022Z,3.40
2022-12-06T21:24:06.959Z,3.40
2022-12-06T21:26:34.080Z,3.40
2022-12-06T21:29:00.828Z,3.40
2022-12-06T21:31:38.209Z,3.40
2022-12-06T21:34:05.507Z,3.40
2022-12-06T21:36:32.529Z,3.40
2022-12-06T21:38:59.297Z,3.40
2022-12-06T21:41:26.665Z,3.40
2022-12-06T21:43:53.335Z,3.40
2022-12-06T21:46:22.586Z,3.40
2022-12-06T21:48:55.272Z,3.40
2022-12-06T21:51:25.330Z,3.50
2022-12-06T21:53:52.193Z,3.50
2022-12-06T21:56:21.288Z,3.50
2022-12-06T21:58:49.068Z,3.50
2022-12-06T22:01:18.912Z,3.50
2022-12-06T22:03:50.016Z,3.50
2022-12-06T22:06:17.294Z,3.50
2022-12-06T22:08:45.261Z,3.50
2022-12-06T22:11:17.466Z,3.50
2022-12-06T22:13:44.664Z,3.50
2022-12-06T22:16:12.838Z,3.60
2022-12-06T22:18:45.817Z,3.60
2022-12-06T22:21:22.129Z,3.60
2022-12-06T22:23:49.157Z,3.60
2022-12-06T22:26:21.450Z,3.60
2022-12-06T22:28:48.672Z,3.60
2022-12-06T22:31:15.364Z,3.60
2022-12-06T22:33:42.620Z,3.60
2022-12-06T22:36:10.498Z,3.60
2022-12-06T22:38:37.658Z,3.60
2022-12-06T22:41:05.613Z,3.60
2022-12-06T22:43:32.719Z,3.60
2022-12-06T22:46:11.296Z,3.60
2022-12-06T22:48:38.702Z,3.60
2022-12-06T22:51:17.845Z,3.70
2022-12-06T22:53:47.499Z,3.70
2022-12-06T22:56:15.497Z,3.70
2022-12-06T22:58:42.179Z,3.70
2022-12-06T23:01:16.742Z,3.70
2022-12-06T23:03:45.606Z,3.70
2022-12-06T23:06:13.409Z,3.70
2022-12-06T23:08:40.459Z,3.70
2022-12-06T23:11:10.327Z,3.70
2022-12-06T23:13:37.240Z,3.70
2022-12-06T23:16:07.435Z,3.70
2022-12-06T23:18:34.572Z,3.70
2022-12-06T23:21:14.851Z,3.70
2022-12-06T23:23:44.819Z,3.70
2022-12-06T23:26:16.820Z,3.70
2022-12-06T23:28:43.610Z,3.70
2022-12-06T23:31:19.228Z,3.70
2022-12-06T23:33:46.689Z,3.70
2022-12-06T23:36:16.537Z,3.70
2022-12-06T23:38:43.807Z,3.70
2022-12-06T23:41:15.857Z,3.70
2022-12-06T23:43:42.631Z,3.70
2022-12-06T23:46:11.887Z,3.70
2022-12-06T23:48:39.275Z,3.70
2022-12-06T23:51:08.916Z,3.70
2022-12-06T23:53:36.241Z,3.70
2022-12-06T23:56:10.832Z,3.70
2022-12-06T23:58:38.066Z,3.70
